Lundstrom Heights, Iowa
Current Conditions -  °F | °C
As of 11:55 AM on Tuesday 21 Oct 2014 (Local Time) from KIKV Reporting Station
Clear Clear  
Wind Chill: 59°   Ceiling: Unl
Heat Index: 59°   Visibility: 10mi
Dew Point: 45°   Wind: 10mph
Humidity: 59%   Direction: 120°ESE
Pressure: 30.16"   Gusts: NA
Location:  41.7257°N, 93.588°W
Report Text: KIKV 211655Z AUTO 12009KT 10SM CLR 15/07 A3016 RMK AO2
Loading
Personal Weather Stations






























Interactive Weather Map
Tropical Storm Tracking
New forecast layout! Learn more

10-Day Weather Forecast

Advertisements
Track Severe Weather on mobile